sensor_id;sensor_type;location;lat;lon;timestamp;P1;durP1;ratioP1;P2;durP2;ratioP2
28266;SDS011;15525;45.568;5.448;2022-10-31T00:00:56;27.17;;;11.82;;
28266;SDS011;15525;45.568;5.448;2022-10-31T00:03:22;22.30;;;11.52;;
28266;SDS011;15525;45.568;5.448;2022-10-31T00:05:48;23.90;;;11.48;;
28266;SDS011;15525;45.568;5.448;2022-10-31T00:08:15;23.13;;;11.55;;
28266;SDS011;15525;45.568;5.448;2022-10-31T00:10:41;25.50;;;12.82;;
28266;SDS011;15525;45.568;5.448;2022-10-31T00:13:08;23.67;;;11.73;;
28266;SDS011;15525;45.568;5.448;2022-10-31T00:15:35;26.48;;;12.23;;
28266;SDS011;15525;45.568;5.448;2022-10-31T00:18:02;25.67;;;11.80;;
28266;SDS011;15525;45.568;5.448;2022-10-31T00:20:29;24.13;;;12.20;;
28266;SDS011;15525;45.568;5.448;2022-10-31T00:22:58;26.23;;;12.02;;
28266;SDS011;15525;45.568;5.448;2022-10-31T00:25:25;21.30;;;11.40;;
28266;SDS011;15525;45.568;5.448;2022-10-31T00:27:51;25.58;;;12.32;;
28266;SDS011;15525;45.568;5.448;2022-10-31T00:30:17;23.95;;;11.77;;
28266;SDS011;15525;45.568;5.448;2022-10-31T00:32:42;21.30;;;11.63;;
28266;SDS011;15525;45.568;5.448;2022-10-31T00:35:08;27.40;;;12.10;;
28266;SDS011;15525;45.568;5.448;2022-10-31T00:37:33;20.77;;;11.68;;
28266;SDS011;15525;45.568;5.448;2022-10-31T00:39:59;28.73;;;11.98;;
28266;SDS011;15525;45.568;5.448;2022-10-31T00:42:24;24.38;;;11.77;;
28266;SDS011;15525;45.568;5.448;2022-10-31T00:44:49;21.15;;;11.45;;
28266;SDS011;15525;45.568;5.448;2022-10-31T00:47:16;24.70;;;11.85;;
28266;SDS011;15525;45.568;5.448;2022-10-31T00:49:41;27.48;;;11.65;;
28266;SDS011;15525;45.568;5.448;2022-10-31T00:52:07;26.27;;;11.80;;
28266;SDS011;15525;45.568;5.448;2022-10-31T00:54:32;26.17;;;12.68;;
28266;SDS011;15525;45.568;5.448;2022-10-31T00:56:57;25.92;;;12.60;;
28266;SDS011;15525;45.568;5.448;2022-10-31T00:59:23;24.55;;;12.48;;
28266;SDS011;15525;45.568;5.448;2022-10-31T01:01:48;25.13;;;11.90;;
28266;SDS011;15525;45.568;5.448;2022-10-31T01:04:14;24.27;;;12.07;;
28266;SDS011;15525;45.568;5.448;2022-10-31T01:06:39;25.95;;;11.95;;
28266;SDS011;15525;45.568;5.448;2022-10-31T01:09:05;21.85;;;11.18;;
28266;SDS011;15525;45.568;5.448;2022-10-31T01:11:30;20.77;;;11.60;;
28266;SDS011;15525;45.568;5.448;2022-10-31T01:13:56;27.85;;;11.90;;
28266;SDS011;15525;45.568;5.448;2022-10-31T01:16:22;24.92;;;12.45;;
28266;SDS011;15525;45.568;5.448;2022-10-31T01:18:49;25.00;;;12.20;;
28266;SDS011;15525;45.568;5.448;2022-10-31T01:21:16;30.33;;;12.93;;
28266;SDS011;15525;45.568;5.448;2022-10-31T01:23:46;23.27;;;11.60;;
28266;SDS011;15525;45.568;5.448;2022-10-31T01:26:16;27.77;;;11.98;;
28266;SDS011;15525;45.568;5.448;2022-10-31T01:28:44;30.75;;;12.93;;
28266;SDS011;15525;45.568;5.448;2022-10-31T01:31:13;25.80;;;12.07;;
28266;SDS011;15525;45.568;5.448;2022-10-31T01:33:39;27.40;;;12.23;;
28266;SDS011;15525;45.568;5.448;2022-10-31T01:36:47;24.80;;;12.55;;
28266;SDS011;15525;45.568;5.448;2022-10-31T01:38:56;29.90;;;12.35;;
28266;SDS011;15525;45.568;5.448;2022-10-31T01:41:24;31.38;;;12.07;;
28266;SDS011;15525;45.568;5.448;2022-10-31T01:43:59;24.17;;;12.43;;
28266;SDS011;15525;45.568;5.448;2022-10-31T01:46:39;28.37;;;12.83;;
28266;SDS011;15525;45.568;5.448;2022-10-31T01:49:09;26.98;;;13.25;;
28266;SDS011;15525;45.568;5.448;2022-10-31T01:51:41;21.87;;;11.97;;
28266;SDS011;15525;45.568;5.448;2022-10-31T01:54:12;23.42;;;11.80;;
28266;SDS011;15525;45.568;5.448;2022-10-31T01:56:41;25.95;;;12.98;;
28266;SDS011;15525;45.568;5.448;2022-10-31T01:59:11;22.05;;;12.40;;
28266;SDS011;15525;45.568;5.448;2022-10-31T02:01:37;22.27;;;11.20;;
28266;SDS011;15525;45.568;5.448;2022-10-31T02:04:03;24.15;;;11.85;;
28266;SDS011;15525;45.568;5.448;2022-10-31T02:06:33;32.40;;;13.32;;
28266;SDS011;15525;45.568;5.448;2022-10-31T02:09:04;21.85;;;11.68;;
28266;SDS011;15525;45.568;5.448;2022-10-31T02:11:30;27.75;;;12.55;;
28266;SDS011;15525;45.568;5.448;2022-10-31T02:13:57;28.00;;;13.00;;
28266;SDS011;15525;45.568;5.448;2022-10-31T02:16:25;23.08;;;11.85;;
28266;SDS011;15525;45.568;5.448;2022-10-31T02:18:50;24.02;;;12.18;;
28266;SDS011;15525;45.568;5.448;2022-10-31T02:21:18;24.33;;;12.00;;
28266;SDS011;15525;45.568;5.448;2022-10-31T02:34:54;26.17;;;12.75;;
28266;SDS011;15525;45.568;5.448;2022-10-31T02:37:29;28.30;;;13.65;;
28266;SDS011;15525;45.568;5.448;2022-10-31T02:40:14;31.02;;;13.18;;
28266;SDS011;15525;45.568;5.448;2022-10-31T02:45:35;27.27;;;13.15;;
28266;SDS011;15525;45.568;5.448;2022-10-31T02:48:04;25.63;;;13.02;;
28266;SDS011;15525;45.568;5.448;2022-10-31T02:50:43;27.27;;;13.40;;
28266;SDS011;15525;45.568;5.448;2022-10-31T02:53:15;25.00;;;12.57;;
28266;SDS011;15525;45.568;5.448;2022-10-31T02:58:13;23.20;;;12.48;;
28266;SDS011;15525;45.568;5.448;2022-10-31T03:01:05;23.90;;;12.48;;
28266;SDS011;15525;45.568;5.448;2022-10-31T03:09:27;28.08;;;13.57;;
28266;SDS011;15525;45.568;5.448;2022-10-31T03:12:18;22.92;;;11.68;;
28266;SDS011;15525;45.568;5.448;2022-10-31T03:14:53;28.50;;;13.15;;
28266;SDS011;15525;45.568;5.448;2022-10-31T03:17:38;26.20;;;12.35;;
28266;SDS011;15525;45.568;5.448;2022-10-31T03:20:12;28.38;;;12.63;;
28266;SDS011;15525;45.568;5.448;2022-10-31T03:22:39;23.25;;;12.60;;
28266;SDS011;15525;45.568;5.448;2022-10-31T03:25:07;28.27;;;13.18;;
28266;SDS011;15525;45.568;5.448;2022-10-31T03:27:35;26.08;;;12.50;;
28266;SDS011;15525;45.568;5.448;2022-10-31T03:30:03;23.92;;;13.55;;
28266;SDS011;15525;45.568;5.448;2022-10-31T03:32:43;28.95;;;13.15;;
28266;SDS011;15525;45.568;5.448;2022-10-31T03:35:14;27.60;;;12.13;;
28266;SDS011;15525;45.568;5.448;2022-10-31T03:37:42;26.33;;;12.50;;
28266;SDS011;15525;45.568;5.448;2022-10-31T03:40:07;27.48;;;12.40;;
28266;SDS011;15525;45.568;5.448;2022-10-31T03:42:37;27.38;;;12.52;;
28266;SDS011;15525;45.568;5.448;2022-10-31T03:47:31;21.17;;;11.43;;
28266;SDS011;15525;45.568;5.448;2022-10-31T03:49:58;23.65;;;11.50;;
28266;SDS011;15525;45.568;5.448;2022-10-31T03:55:26;23.95;;;12.02;;
28266;SDS011;15525;45.568;5.448;2022-10-31T03:58:12;25.27;;;12.80;;
28266;SDS011;15525;45.568;5.448;2022-10-31T04:00:54;24.13;;;12.60;;
28266;SDS011;15525;45.568;5.448;2022-10-31T04:03:25;24.05;;;12.38;;
28266;SDS011;15525;45.568;5.448;2022-10-31T04:05:54;27.90;;;11.63;;
28266;SDS011;15525;45.568;5.448;2022-10-31T04:08:23;21.95;;;11.88;;
28266;SDS011;15525;45.568;5.448;2022-10-31T04:10:52;22.38;;;11.70;;
28266;SDS011;15525;45.568;5.448;2022-10-31T04:13:22;24.33;;;11.25;;
28266;SDS011;15525;45.568;5.448;2022-10-31T04:15:53;28.23;;;13.38;;
28266;SDS011;15525;45.568;5.448;2022-10-31T04:18:20;22.88;;;11.90;;
28266;SDS011;15525;45.568;5.448;2022-10-31T04:20:47;27.30;;;12.52;;
28266;SDS011;15525;45.568;5.448;2022-10-31T04:25:48;23.27;;;12.97;;
28266;SDS011;15525;45.568;5.448;2022-10-31T04:28:13;29.58;;;13.02;;
28266;SDS011;15525;45.568;5.448;2022-10-31T04:30:39;23.10;;;12.40;;
28266;SDS011;15525;45.568;5.448;2022-10-31T04:33:04;24.27;;;12.43;;
28266;SDS011;15525;45.568;5.448;2022-10-31T04:35:30;19.58;;;10.88;;
28266;SDS011;15525;45.568;5.448;2022-10-31T04:37:55;19.25;;;11.10;;
28266;SDS011;15525;45.568;5.448;2022-10-31T04:40:21;25.83;;;12.00;;
28266;SDS011;15525;45.568;5.448;2022-10-31T04:42:46;29.23;;;12.38;;
28266;SDS011;15525;45.568;5.448;2022-10-31T04:45:11;26.08;;;11.80;;
28266;SDS011;15525;45.568;5.448;2022-10-31T04:47:38;27.55;;;12.65;;
28266;SDS011;15525;45.568;5.448;2022-10-31T04:50:03;26.58;;;12.68;;
28266;SDS011;15525;45.568;5.448;2022-10-31T04:52:29;29.02;;;12.60;;
28266;SDS011;15525;45.568;5.448;2022-10-31T04:54:58;23.92;;;12.15;;
28266;SDS011;15525;45.568;5.448;2022-10-31T04:57:25;24.63;;;11.95;;
28266;SDS011;15525;45.568;5.448;2022-10-31T04:59:50;33.85;;;12.50;;
28266;SDS011;15525;45.568;5.448;2022-10-31T05:02:16;28.75;;;13.23;;
28266;SDS011;15525;45.568;5.448;2022-10-31T05:04:41;23.17;;;12.15;;
28266;SDS011;15525;45.568;5.448;2022-10-31T05:07:07;27.10;;;13.57;;
28266;SDS011;15525;45.568;5.448;2022-10-31T05:09:32;24.98;;;13.38;;
28266;SDS011;15525;45.568;5.448;2022-10-31T05:11:57;23.52;;;12.95;;
28266;SDS011;15525;45.568;5.448;2022-10-31T05:14:23;28.50;;;12.65;;
28266;SDS011;15525;45.568;5.448;2022-10-31T05:16:48;34.17;;;14.38;;
28266;SDS011;15525;45.568;5.448;2022-10-31T05:19:14;25.27;;;14.02;;
28266;SDS011;15525;45.568;5.448;2022-10-31T05:21:39;25.70;;;13.75;;
28266;SDS011;15525;45.568;5.448;2022-10-31T05:24:04;29.35;;;13.73;;
28266;SDS011;15525;45.568;5.448;2022-10-31T05:26:30;31.05;;;13.70;;
28266;SDS011;15525;45.568;5.448;2022-10-31T05:28:56;28.02;;;13.82;;
28266;SDS011;15525;45.568;5.448;2022-10-31T05:31:21;29.73;;;14.63;;
28266;SDS011;15525;45.568;5.448;2022-10-31T05:33:47;28.92;;;13.80;;
28266;SDS011;15525;45.568;5.448;2022-10-31T05:36:12;24.88;;;14.10;;
28266;SDS011;15525;45.568;5.448;2022-10-31T05:38:37;28.55;;;14.45;;
28266;SDS011;15525;45.568;5.448;2022-10-31T05:41:03;33.13;;;14.65;;
28266;SDS011;15525;45.568;5.448;2022-10-31T05:43:28;31.10;;;14.48;;
28266;SDS011;15525;45.568;5.448;2022-10-31T05:45:54;34.90;;;15.23;;
28266;SDS011;15525;45.568;5.448;2022-10-31T05:48:21;28.08;;;13.82;;
28266;SDS011;15525;45.568;5.448;2022-10-31T05:50:48;29.35;;;13.57;;
28266;SDS011;15525;45.568;5.448;2022-10-31T05:53:14;28.10;;;13.43;;
28266;SDS011;15525;45.568;5.448;2022-10-31T05:55:41;27.85;;;13.68;;
28266;SDS011;15525;45.568;5.448;2022-10-31T05:58:07;25.77;;;13.63;;
28266;SDS011;15525;45.568;5.448;2022-10-31T06:00:33;24.83;;;13.05;;
28266;SDS011;15525;45.568;5.448;2022-10-31T06:03:00;26.30;;;13.27;;
28266;SDS011;15525;45.568;5.448;2022-10-31T06:05:27;22.40;;;12.57;;
28266;SDS011;15525;45.568;5.448;2022-10-31T06:07:53;26.02;;;12.77;;
28266;SDS011;15525;45.568;5.448;2022-10-31T06:10:18;25.08;;;13.85;;
28266;SDS011;15525;45.568;5.448;2022-10-31T06:12:45;25.85;;;13.82;;
28266;SDS011;15525;45.568;5.448;2022-10-31T06:15:11;28.85;;;13.55;;
28266;SDS011;15525;45.568;5.448;2022-10-31T06:17:37;27.55;;;13.40;;
28266;SDS011;15525;45.568;5.448;2022-10-31T06:20:03;22.23;;;12.70;;
28266;SDS011;15525;45.568;5.448;2022-10-31T06:22:29;27.85;;;13.75;;
28266;SDS011;15525;45.568;5.448;2022-10-31T06:24:54;29.70;;;12.68;;
28266;SDS011;15525;45.568;5.448;2022-10-31T06:27:20;27.35;;;12.93;;
28266;SDS011;15525;45.568;5.448;2022-10-31T06:29:46;24.75;;;12.60;;
28266;SDS011;15525;45.568;5.448;2022-10-31T06:32:11;31.40;;;13.48;;
28266;SDS011;15525;45.568;5.448;2022-10-31T06:34:37;24.13;;;12.68;;
28266;SDS011;15525;45.568;5.448;2022-10-31T06:37:05;26.17;;;12.93;;
28266;SDS011;15525;45.568;5.448;2022-10-31T06:39:32;32.03;;;12.98;;
28266;SDS011;15525;45.568;5.448;2022-10-31T06:41:57;27.60;;;13.68;;
28266;SDS011;15525;45.568;5.448;2022-10-31T06:44:22;27.30;;;13.57;;
28266;SDS011;15525;45.568;5.448;2022-10-31T06:46:48;24.38;;;12.73;;
28266;SDS011;15525;45.568;5.448;2022-10-31T06:49:13;24.30;;;13.48;;
28266;SDS011;15525;45.568;5.448;2022-10-31T06:51:39;29.48;;;14.70;;
28266;SDS011;15525;45.568;5.448;2022-10-31T06:54:04;35.00;;;14.25;;
28266;SDS011;15525;45.568;5.448;2022-10-31T06:56:30;28.77;;;14.23;;
28266;SDS011;15525;45.568;5.448;2022-10-31T06:58:55;30.58;;;13.82;;
28266;SDS011;15525;45.568;5.448;2022-10-31T07:01:20;34.83;;;14.90;;
28266;SDS011;15525;45.568;5.448;2022-10-31T07:03:46;28.67;;;14.25;;
28266;SDS011;15525;45.568;5.448;2022-10-31T07:06:11;30.98;;;14.25;;
28266;SDS011;15525;45.568;5.448;2022-10-31T07:08:37;48.70;;;15.90;;
28266;SDS011;15525;45.568;5.448;2022-10-31T07:11:02;30.02;;;14.70;;
28266;SDS011;15525;45.568;5.448;2022-10-31T07:13:27;32.28;;;14.43;;
28266;SDS011;15525;45.568;5.448;2022-10-31T07:15:53;34.28;;;15.40;;
28266;SDS011;15525;45.568;5.448;2022-10-31T07:18:20;25.98;;;14.38;;
28266;SDS011;15525;45.568;5.448;2022-10-31T07:20:46;29.23;;;14.63;;
28266;SDS011;15525;45.568;5.448;2022-10-31T07:23:13;32.63;;;14.75;;
28266;SDS011;15525;45.568;5.448;2022-10-31T07:25:38;34.17;;;14.65;;
28266;SDS011;15525;45.568;5.448;2022-10-31T07:28:04;30.08;;;15.07;;
28266;SDS011;15525;45.568;5.448;2022-10-31T07:30:30;35.92;;;15.75;;
28266;SDS011;15525;45.568;5.448;2022-10-31T07:32:55;31.77;;;14.20;;
28266;SDS011;15525;45.568;5.448;2022-10-31T07:35:22;27.35;;;15.07;;
28266;SDS011;15525;45.568;5.448;2022-10-31T07:37:49;30.98;;;14.20;;
28266;SDS011;15525;45.568;5.448;2022-10-31T07:40:15;34.53;;;17.17;;
28266;SDS011;15525;45.568;5.448;2022-10-31T07:42:43;32.28;;;16.27;;
28266;SDS011;15525;45.568;5.448;2022-10-31T07:45:11;42.45;;;19.17;;
28266;SDS011;15525;45.568;5.448;2022-10-31T07:47:38;55.55;;;27.65;;
28266;SDS011;15525;45.568;5.448;2022-10-31T07:50:04;50.38;;;27.67;;
28266;SDS011;15525;45.568;5.448;2022-10-31T07:52:30;38.30;;;19.38;;
28266;SDS011;15525;45.568;5.448;2022-10-31T07:54:56;34.42;;;16.25;;
28266;SDS011;15525;45.568;5.448;2022-10-31T07:57:21;30.40;;;15.38;;
28266;SDS011;15525;45.568;5.448;2022-10-31T07:59:47;37.97;;;17.77;;
28266;SDS011;15525;45.568;5.448;2022-10-31T08:02:12;38.25;;;17.63;;
28266;SDS011;15525;45.568;5.448;2022-10-31T08:04:38;37.10;;;18.30;;
28266;SDS011;15525;45.568;5.448;2022-10-31T08:07:03;33.47;;;17.08;;
28266;SDS011;15525;45.568;5.448;2022-10-31T08:09:28;37.97;;;16.77;;
28266;SDS011;15525;45.568;5.448;2022-10-31T08:11:54;38.38;;;16.30;;
28266;SDS011;15525;45.568;5.448;2022-10-31T08:14:19;35.25;;;15.88;;
28266;SDS011;15525;45.568;5.448;2022-10-31T08:16:45;34.50;;;17.13;;
28266;SDS011;15525;45.568;5.448;2022-10-31T08:19:10;30.85;;;15.63;;
28266;SDS011;15525;45.568;5.448;2022-10-31T08:21:36;32.67;;;14.57;;
28266;SDS011;15525;45.568;5.448;2022-10-31T08:24:02;37.25;;;14.95;;
28266;SDS011;15525;45.568;5.448;2022-10-31T08:26:27;25.83;;;14.10;;
28266;SDS011;15525;45.568;5.448;2022-10-31T08:28:53;28.40;;;13.20;;
28266;SDS011;15525;45.568;5.448;2022-10-31T08:31:20;31.50;;;13.93;;
28266;SDS011;15525;45.568;5.448;2022-10-31T08:33:45;33.70;;;14.10;;
28266;SDS011;15525;45.568;5.448;2022-10-31T08:36:11;24.27;;;13.70;;
28266;SDS011;15525;45.568;5.448;2022-10-31T08:38:36;33.10;;;14.10;;
28266;SDS011;15525;45.568;5.448;2022-10-31T08:41:02;28.90;;;12.50;;
28266;SDS011;15525;45.568;5.448;2022-10-31T08:43:27;25.85;;;13.95;;
28266;SDS011;15525;45.568;5.448;2022-10-31T08:45:52;30.95;;;13.50;;
28266;SDS011;15525;45.568;5.448;2022-10-31T08:48:20;30.45;;;13.60;;
28266;SDS011;15525;45.568;5.448;2022-10-31T08:50:45;29.55;;;13.80;;
28266;SDS011;15525;45.568;5.448;2022-10-31T08:53:12;32.70;;;13.93;;
28266;SDS011;15525;45.568;5.448;2022-10-31T08:55:47;26.40;;;12.73;;
28266;SDS011;15525;45.568;5.448;2022-10-31T08:58:14;28.40;;;12.98;;
28266;SDS011;15525;45.568;5.448;2022-10-31T09:00:42;31.20;;;14.60;;
28266;SDS011;15525;45.568;5.448;2022-10-31T09:03:13;33.40;;;14.82;;
28266;SDS011;15525;45.568;5.448;2022-10-31T09:05:40;28.08;;;13.52;;
28266;SDS011;15525;45.568;5.448;2022-10-31T09:08:06;26.48;;;12.00;;
28266;SDS011;15525;45.568;5.448;2022-10-31T09:10:33;29.08;;;11.93;;
28266;SDS011;15525;45.568;5.448;2022-10-31T09:13:00;24.48;;;11.55;;
28266;SDS011;15525;45.568;5.448;2022-10-31T09:15:31;27.05;;;11.77;;
28266;SDS011;15525;45.568;5.448;2022-10-31T09:17:57;27.08;;;12.05;;
28266;SDS011;15525;45.568;5.448;2022-10-31T09:20:23;24.77;;;13.38;;
28266;SDS011;15525;45.568;5.448;2022-10-31T09:22:55;29.88;;;13.35;;
28266;SDS011;15525;45.568;5.448;2022-10-31T09:25:22;27.42;;;12.18;;
28266;SDS011;15525;45.568;5.448;2022-10-31T09:33:03;21.52;;;11.07;;
28266;SDS011;15525;45.568;5.448;2022-10-31T09:35:31;29.25;;;11.13;;
28266;SDS011;15525;45.568;5.448;2022-10-31T09:37:57;27.52;;;12.23;;
28266;SDS011;15525;45.568;5.448;2022-10-31T09:48:24;26.73;;;10.88;;
28266;SDS011;15525;45.568;5.448;2022-10-31T09:51:03;22.25;;;10.02;;
28266;SDS011;15525;45.568;5.448;2022-10-31T09:55:57;24.20;;;10.38;;
28266;SDS011;15525;45.568;5.448;2022-10-31T09:58:25;27.15;;;10.02;;
28266;SDS011;15525;45.568;5.448;2022-10-31T10:00:53;22.05;;;10.45;;
28266;SDS011;15525;45.568;5.448;2022-10-31T10:06:13;20.15;;;9.98;;
28266;SDS011;15525;45.568;5.448;2022-10-31T10:08:42;27.23;;;10.27;;
28266;SDS011;15525;45.568;5.448;2022-10-31T10:14:01;26.02;;;10.20;;
28266;SDS011;15525;45.568;5.448;2022-10-31T10:30:33;18.48;;;9.20;;
28266;SDS011;15525;45.568;5.448;2022-10-31T10:33:02;20.85;;;10.13;;
28266;SDS011;15525;45.568;5.448;2022-10-31T10:35:55;17.17;;;8.60;;
28266;SDS011;15525;45.568;5.448;2022-10-31T10:41:17;22.75;;;8.02;;
28266;SDS011;15525;45.568;5.448;2022-10-31T10:43:51;18.00;;;8.05;;
28266;SDS011;15525;45.568;5.448;2022-10-31T10:49:06;22.85;;;8.43;;
28266;SDS011;15525;45.568;5.448;2022-10-31T10:51:58;17.17;;;8.38;;
28266;SDS011;15525;45.568;5.448;2022-10-31T11:00:30;20.17;;;8.45;;
28266;SDS011;15525;45.568;5.448;2022-10-31T11:02:55;19.75;;;8.18;;
28266;SDS011;15525;45.568;5.448;2022-10-31T11:05:26;23.27;;;8.55;;
28266;SDS011;15525;45.568;5.448;2022-10-31T11:07:56;19.08;;;7.95;;
28266;SDS011;15525;45.568;5.448;2022-10-31T11:10:21;23.58;;;8.20;;
28266;SDS011;15525;45.568;5.448;2022-10-31T11:16:07;23.27;;;9.45;;
28266;SDS011;15525;45.568;5.448;2022-10-31T11:18:39;19.33;;;7.95;;
28266;SDS011;15525;45.568;5.448;2022-10-31T11:21:19;24.30;;;8.10;;
28266;SDS011;15525;45.568;5.448;2022-10-31T11:23:46;24.08;;;8.13;;
28266;SDS011;15525;45.568;5.448;2022-10-31T11:26:19;17.27;;;8.10;;
28266;SDS011;15525;45.568;5.448;2022-10-31T11:28:55;18.20;;;7.20;;
28266;SDS011;15525;45.568;5.448;2022-10-31T11:31:22;23.40;;;7.15;;
28266;SDS011;15525;45.568;5.448;2022-10-31T11:33:49;17.63;;;7.50;;
28266;SDS011;15525;45.568;5.448;2022-10-31T11:38:52;15.35;;;7.13;;
28266;SDS011;15525;45.568;5.448;2022-10-31T11:41:40;16.55;;;6.93;;
28266;SDS011;15525;45.568;5.448;2022-10-31T11:49:43;19.35;;;6.88;;
28266;SDS011;15525;45.568;5.448;2022-10-31T11:52:16;16.98;;;7.30;;
28266;SDS011;15525;45.568;5.448;2022-10-31T11:54:55;18.73;;;7.35;;
28266;SDS011;15525;45.568;5.448;2022-10-31T11:57:25;16.08;;;6.88;;
28266;SDS011;15525;45.568;5.448;2022-10-31T11:59:58;14.50;;;6.55;;
28266;SDS011;15525;45.568;5.448;2022-10-31T12:02:26;21.50;;;7.25;;
28266;SDS011;15525;45.568;5.448;2022-10-31T12:05:37;15.23;;;6.28;;
28266;SDS011;15525;45.568;5.448;2022-10-31T12:07:46;19.65;;;6.72;;
28266;SDS011;15525;45.568;5.448;2022-10-31T12:10:13;19.45;;;7.35;;
28266;SDS011;15525;45.568;5.448;2022-10-31T12:21:23;16.85;;;6.90;;
28266;SDS011;15525;45.568;5.448;2022-10-31T12:26:38;17.20;;;7.40;;
28266;SDS011;15525;45.568;5.448;2022-10-31T12:37:23;16.27;;;6.97;;
28266;SDS011;15525;45.568;5.448;2022-10-31T12:40:15;18.67;;;7.53;;
28266;SDS011;15525;45.568;5.448;2022-10-31T12:43:09;14.25;;;6.82;;
28266;SDS011;15525;45.568;5.448;2022-10-31T12:45:41;15.95;;;6.47;;
28266;SDS011;15525;45.568;5.448;2022-10-31T12:48:17;16.60;;;6.50;;
28266;SDS011;15525;45.568;5.448;2022-10-31T12:50:51;22.17;;;6.78;;
28266;SDS011;15525;45.568;5.448;2022-10-31T12:53:40;22.98;;;7.03;;
28266;SDS011;15525;45.568;5.448;2022-10-31T13:01:47;17.13;;;6.78;;
28266;SDS011;15525;45.568;5.448;2022-10-31T13:07:08;18.15;;;6.95;;
28266;SDS011;15525;45.568;5.448;2022-10-31T13:09:51;17.52;;;6.82;;
28266;SDS011;15525;45.568;5.448;2022-10-31T13:12:23;15.40;;;7.30;;
28266;SDS011;15525;45.568;5.448;2022-10-31T13:14:52;19.58;;;6.97;;
28266;SDS011;15525;45.568;5.448;2022-10-31T13:17:30;22.25;;;8.00;;
28266;SDS011;15525;45.568;5.448;2022-10-31T13:20:12;17.00;;;7.55;;
28266;SDS011;15525;45.568;5.448;2022-10-31T13:23:17;18.10;;;7.15;;
28266;SDS011;15525;45.568;5.448;2022-10-31T13:25:47;16.08;;;6.70;;
28266;SDS011;15525;45.568;5.448;2022-10-31T13:28:34;16.55;;;7.07;;
28266;SDS011;15525;45.568;5.448;2022-10-31T13:31:05;15.38;;;6.53;;
28266;SDS011;15525;45.568;5.448;2022-10-31T13:33:37;17.40;;;6.93;;
28266;SDS011;15525;45.568;5.448;2022-10-31T13:46:54;25.88;;;7.00;;
28266;SDS011;15525;45.568;5.448;2022-10-31T13:52:04;15.90;;;6.53;;
28266;SDS011;15525;45.568;5.448;2022-10-31T13:54:41;14.75;;;6.53;;
28266;SDS011;15525;45.568;5.448;2022-10-31T13:57:19;16.83;;;6.55;;
28266;SDS011;15525;45.568;5.448;2022-10-31T13:59:53;20.13;;;6.78;;
28266;SDS011;15525;45.568;5.448;2022-10-31T14:02:31;17.58;;;6.57;;
28266;SDS011;15525;45.568;5.448;2022-10-31T14:05:00;16.77;;;6.65;;
28266;SDS011;15525;45.568;5.448;2022-10-31T14:07:29;15.50;;;6.80;;
28266;SDS011;15525;45.568;5.448;2022-10-31T14:09:57;15.02;;;6.40;;
28266;SDS011;15525;45.568;5.448;2022-10-31T14:22:37;14.68;;;6.78;;
28266;SDS011;15525;45.568;5.448;2022-10-31T14:31:02;18.63;;;6.97;;
28266;SDS011;15525;45.568;5.448;2022-10-31T14:33:47;16.13;;;6.75;;
28266;SDS011;15525;45.568;5.448;2022-10-31T14:36:18;11.95;;;6.15;;
28266;SDS011;15525;45.568;5.448;2022-10-31T14:46:43;14.80;;;5.93;;
28266;SDS011;15525;45.568;5.448;2022-10-31T14:50:04;12.07;;;5.45;;
28266;SDS011;15525;45.568;5.448;2022-10-31T14:52:10;21.65;;;6.50;;
28266;SDS011;15525;45.568;5.448;2022-10-31T14:54:41;18.60;;;6.32;;
28266;SDS011;15525;45.568;5.448;2022-10-31T14:57:15;22.05;;;6.10;;
28266;SDS011;15525;45.568;5.448;2022-10-31T14:59:48;17.80;;;5.75;;
28266;SDS011;15525;45.568;5.448;2022-10-31T15:02:24;20.95;;;6.22;;
28266;SDS011;15525;45.568;5.448;2022-10-31T15:04:59;17.20;;;5.90;;
28266;SDS011;15525;45.568;5.448;2022-10-31T15:07:26;17.92;;;6.10;;
28266;SDS011;15525;45.568;5.448;2022-10-31T15:09:56;17.23;;;6.20;;
28266;SDS011;15525;45.568;5.448;2022-10-31T15:12:27;15.75;;;5.63;;
28266;SDS011;15525;45.568;5.448;2022-10-31T15:14:54;16.10;;;6.32;;
28266;SDS011;15525;45.568;5.448;2022-10-31T15:17:21;16.17;;;5.90;;
28266;SDS011;15525;45.568;5.448;2022-10-31T15:19:48;15.60;;;5.57;;
28266;SDS011;15525;45.568;5.448;2022-10-31T15:22:15;15.13;;;5.32;;
28266;SDS011;15525;45.568;5.448;2022-10-31T15:24:42;18.90;;;6.03;;
28266;SDS011;15525;45.568;5.448;2022-10-31T15:27:13;16.90;;;5.32;;
28266;SDS011;15525;45.568;5.448;2022-10-31T15:29:50;20.70;;;6.05;;
28266;SDS011;15525;45.568;5.448;2022-10-31T15:32:20;11.75;;;5.63;;
28266;SDS011;15525;45.568;5.448;2022-10-31T15:34:48;13.32;;;6.03;;
28266;SDS011;15525;45.568;5.448;2022-10-31T15:37:15;12.40;;;6.07;;
28266;SDS011;15525;45.568;5.448;2022-10-31T15:39:43;17.35;;;5.85;;
28266;SDS011;15525;45.568;5.448;2022-10-31T15:44:51;21.55;;;7.30;;
28266;SDS011;15525;45.568;5.448;2022-10-31T15:47:21;19.10;;;6.50;;
28266;SDS011;15525;45.568;5.448;2022-10-31T15:49:52;19.05;;;6.25;;
28266;SDS011;15525;45.568;5.448;2022-10-31T15:52:37;17.83;;;6.30;;
28266;SDS011;15525;45.568;5.448;2022-10-31T15:57:38;18.13;;;6.95;;
28266;SDS011;15525;45.568;5.448;2022-10-31T16:00:06;17.42;;;7.03;;
28266;SDS011;15525;45.568;5.448;2022-10-31T16:02:32;25.48;;;6.95;;
28266;SDS011;15525;45.568;5.448;2022-10-31T16:04:58;23.15;;;7.55;;
28266;SDS011;15525;45.568;5.448;2022-10-31T16:07:31;15.05;;;6.78;;
28266;SDS011;15525;45.568;5.448;2022-10-31T16:10:00;21.42;;;7.53;;
28266;SDS011;15525;45.568;5.448;2022-10-31T16:12:31;19.30;;;7.15;;
28266;SDS011;15525;45.568;5.448;2022-10-31T16:15:00;12.23;;;6.35;;
28266;SDS011;15525;45.568;5.448;2022-10-31T16:17:26;26.02;;;7.97;;
28266;SDS011;15525;45.568;5.448;2022-10-31T16:20:04;21.08;;;7.47;;
28266;SDS011;15525;45.568;5.448;2022-10-31T16:22:31;12.75;;;6.70;;
28266;SDS011;15525;45.568;5.448;2022-10-31T16:28:05;18.73;;;7.50;;
28266;SDS011;15525;45.568;5.448;2022-10-31T16:30:42;19.95;;;8.32;;
28266;SDS011;15525;45.568;5.448;2022-10-31T16:33:24;19.13;;;8.85;;
28266;SDS011;15525;45.568;5.448;2022-10-31T16:35:49;22.60;;;9.07;;
28266;SDS011;15525;45.568;5.448;2022-10-31T16:38:15;21.23;;;8.98;;
28266;SDS011;15525;45.568;5.448;2022-10-31T16:40:40;16.90;;;8.30;;
28266;SDS011;15525;45.568;5.448;2022-10-31T16:43:13;19.27;;;8.48;;
28266;SDS011;15525;45.568;5.448;2022-10-31T16:48:11;26.35;;;9.57;;
28266;SDS011;15525;45.568;5.448;2022-10-31T16:50:39;23.02;;;8.95;;
28266;SDS011;15525;45.568;5.448;2022-10-31T16:53:05;22.90;;;8.95;;
28266;SDS011;15525;45.568;5.448;2022-10-31T16:55:31;19.15;;;9.02;;
28266;SDS011;15525;45.568;5.448;2022-10-31T16:57:59;22.52;;;9.70;;
28266;SDS011;15525;45.568;5.448;2022-10-31T17:00:26;21.60;;;10.18;;
28266;SDS011;15525;45.568;5.448;2022-10-31T17:02:53;19.58;;;8.88;;
28266;SDS011;15525;45.568;5.448;2022-10-31T17:05:24;20.75;;;8.07;;
28266;SDS011;15525;45.568;5.448;2022-10-31T17:07:57;16.23;;;7.80;;
28266;SDS011;15525;45.568;5.448;2022-10-31T17:10:23;15.82;;;7.03;;
28266;SDS011;15525;45.568;5.448;2022-10-31T17:12:49;16.98;;;6.63;;
28266;SDS011;15525;45.568;5.448;2022-10-31T17:15:22;15.35;;;5.65;;
28266;SDS011;15525;45.568;5.448;2022-10-31T17:17:49;10.75;;;4.65;;
28266;SDS011;15525;45.568;5.448;2022-10-31T17:20:16;12.68;;;4.38;;
28266;SDS011;15525;45.568;5.448;2022-10-31T17:22:45;10.90;;;4.63;;